createdAt,value
2023-02-06T00:01:25.138Z,9.43
2023-02-06T00:03:52.429Z,9.48
2023-02-06T00:06:19.716Z,10.50
2023-02-06T00:08:47.181Z,11.88
2023-02-06T00:11:19.247Z,8.43
2023-02-06T00:13:46.811Z,8.55
2023-02-06T00:16:22.934Z,8.07
2023-02-06T00:18:50.951Z,9.45
2023-02-06T00:21:21.747Z,9.75
2023-02-06T00:23:49.392Z,10.32
2023-02-06T00:26:17.341Z,9.13
2023-02-06T00:28:45.820Z,9.90
2023-02-06T00:31:14.066Z,9.63
2023-02-06T00:33:42.094Z,9.20
2023-02-06T00:36:09.888Z,9.40
2023-02-06T00:38:37.884Z,8.65
2023-02-06T00:41:05.540Z,8.77
2023-02-06T00:43:33.046Z,10.35
2023-02-06T00:46:00.461Z,9.50
2023-02-06T00:48:27.990Z,9.00
2023-02-06T00:50:55.687Z,9.43
2023-02-06T00:53:23.014Z,12.00
2023-02-06T00:55:50.460Z,9.75
2023-02-06T00:58:17.880Z,10.88
2023-02-06T01:00:45.232Z,10.13
2023-02-06T01:03:12.844Z,10.23
2023-02-06T01:05:40.215Z,9.68
2023-02-06T01:08:07.602Z,9.20
2023-02-06T01:10:34.893Z,10.52
2023-02-06T01:13:02.272Z,10.18
2023-02-06T01:15:29.605Z,9.43
2023-02-06T01:17:56.910Z,9.68
2023-02-06T01:20:24.841Z,9.88
2023-02-06T01:22:52.176Z,9.55
2023-02-06T01:25:19.902Z,11.13
2023-02-06T01:27:47.166Z,8.90
2023-02-06T01:30:14.950Z,9.25
2023-02-06T01:32:42.999Z,9.05
2023-02-06T01:35:12.054Z,9.55
2023-02-06T01:37:41.344Z,10.43
2023-02-06T01:40:14.247Z,8.57
2023-02-06T01:42:42.213Z,10.82
2023-02-06T01:45:30.455Z,8.05
2023-02-06T01:48:02.209Z,9.88
2023-02-06T01:50:31.842Z,9.05
2023-02-06T01:52:59.517Z,10.45
2023-02-06T01:55:26.886Z,9.57
2023-02-06T01:57:54.335Z,7.43
2023-02-06T02:00:21.680Z,9.88
2023-02-06T02:02:49.951Z,9.95
2023-02-06T02:05:19.265Z,10.00
2023-02-06T02:08:02.304Z,9.25
2023-02-06T02:10:31.449Z,10.43
2023-02-06T02:12:58.835Z,8.90
2023-02-06T02:15:52.739Z,10.25
2023-02-06T02:18:56.788Z,8.90
2023-02-06T02:21:54.764Z,10.07
2023-02-06T02:25:04.461Z,9.80
2023-02-06T02:27:47.160Z,12.43
2023-02-06T02:30:20.440Z,9.20
2023-02-06T02:33:20.957Z,9.32
2023-02-06T02:36:27.125Z,9.63
2023-02-06T02:39:10.240Z,10.90
2023-02-06T02:41:58.621Z,9.05
2023-02-06T02:44:25.942Z,9.93
2023-02-06T02:46:57.908Z,10.02
2023-02-06T02:49:29.748Z,10.02
2023-02-06T02:51:58.547Z,10.15
2023-02-06T02:54:26.488Z,9.15
2023-02-06T02:56:58.233Z,9.77
2023-02-06T02:59:34.182Z,9.65
2023-02-06T03:02:24.241Z,10.48
2023-02-06T03:04:56.019Z,10.60
2023-02-06T03:07:44.916Z,10.48
2023-02-06T03:10:21.638Z,10.38
2023-02-06T03:13:00.528Z,10.77
2023-02-06T03:15:55.297Z,11.85
2023-02-06T03:18:35.943Z,12.70
2023-02-06T03:21:09.626Z,12.95
2023-02-06T03:23:41.378Z,12.50
2023-02-06T03:26:13.544Z,14.32
2023-02-06T03:28:46.230Z,15.05
2023-02-06T03:31:19.019Z,12.75
2023-02-06T03:33:57.240Z,13.50
2023-02-06T03:36:24.601Z,16.52
2023-02-06T03:38:53.848Z,14.95
2023-02-06T03:41:25.731Z,12.25
2023-02-06T03:43:54.494Z,14.30
2023-02-06T03:46:23.116Z,13.25
2023-02-06T03:48:54.897Z,14.15
2023-02-06T03:51:28.715Z,13.73
2023-02-06T03:53:58.404Z,14.27
2023-02-06T03:56:35.522Z,13.63
2023-02-06T03:59:03.303Z,14.35
2023-02-06T04:01:30.710Z,14.30
2023-02-06T04:03:58.794Z,13.07
2023-02-06T04:06:26.204Z,12.20
2023-02-06T04:08:53.682Z,13.13
2023-02-06T04:11:20.977Z,11.73
2023-02-06T04:13:48.319Z,12.57
2023-02-06T04:16:15.611Z,13.05
2023-02-06T04:18:42.995Z,11.95
2023-02-06T04:21:10.278Z,13.23
2023-02-06T04:23:37.537Z,11.65
2023-02-06T04:26:04.940Z,11.80
2023-02-06T04:28:32.251Z,12.63
2023-02-06T04:30:59.868Z,11.05
2023-02-06T04:33:27.323Z,11.55
2023-02-06T04:35:54.702Z,12.63
2023-02-06T04:38:22.123Z,11.60
2023-02-06T04:40:49.561Z,10.95
2023-02-06T04:43:16.853Z,11.02
2023-02-06T04:45:44.304Z,11.05
2023-02-06T04:48:11.572Z,11.57
2023-02-06T04:50:38.818Z,10.88
2023-02-06T04:53:06.081Z,9.98
2023-02-06T04:55:35.751Z,11.05
2023-02-06T04:58:03.140Z,12.95
2023-02-06T05:00:30.462Z,12.05
2023-02-06T05:02:57.735Z,11.02
2023-02-06T05:05:25.072Z,11.95
2023-02-06T05:07:52.332Z,11.95
2023-02-06T05:10:19.908Z,9.82
2023-02-06T05:12:47.465Z,10.77
2023-02-06T05:15:14.827Z,11.85
2023-02-06T05:17:42.103Z,11.68
2023-02-06T05:20:10.040Z,11.20
2023-02-06T05:22:37.301Z,11.38
2023-02-06T05:25:04.719Z,11.32
2023-02-06T05:27:32.006Z,11.93
2023-02-06T05:29:59.363Z,12.65
2023-02-06T05:32:26.725Z,12.00
2023-02-06T05:34:53.965Z,11.43
2023-02-06T05:37:21.283Z,12.85
2023-02-06T05:39:48.558Z,14.05
2023-02-06T05:42:15.884Z,12.38
2023-02-06T05:44:43.191Z,14.10
2023-02-06T05:47:10.494Z,13.23
2023-02-06T05:49:37.790Z,12.95
2023-02-06T05:52:05.353Z,13.45
2023-02-06T05:54:32.627Z,12.40
2023-02-06T05:56:59.910Z,11.43
2023-02-06T05:59:27.235Z,12.40
2023-02-06T06:01:54.590Z,12.10
2023-02-06T06:04:21.922Z,13.98
2023-02-06T06:06:49.286Z,12.48
2023-02-06T06:09:16.664Z,12.93
2023-02-06T06:11:44.059Z,12.82
2023-02-06T06:14:12.089Z,12.70
2023-02-06T06:16:40.782Z,12.95
2023-02-06T06:19:08.410Z,12.30
2023-02-06T06:21:36.162Z,13.15
2023-02-06T06:24:03.694Z,14.60
2023-02-06T06:26:31.091Z,11.82
2023-02-06T06:28:58.503Z,13.48
2023-02-06T06:31:25.803Z,12.90
2023-02-06T06:33:54.285Z,13.48
2023-02-06T06:36:21.642Z,12.55
2023-02-06T06:38:49.092Z,12.88
2023-02-06T06:41:16.776Z,13.73
2023-02-06T06:43:44.082Z,13.77
2023-02-06T06:46:11.714Z,15.00
2023-02-06T06:48:40.358Z,17.27
2023-02-06T06:51:07.785Z,16.23
2023-02-06T06:53:39.861Z,14.48
2023-02-06T06:56:09.845Z,13.98
2023-02-06T06:58:37.136Z,16.83
2023-02-06T07:01:05.189Z,13.43
2023-02-06T07:03:32.706Z,12.88
2023-02-06T07:06:00.031Z,14.90
2023-02-06T07:08:30.061Z,13.70
2023-02-06T07:10:58.083Z,17.05
2023-02-06T07:13:25.461Z,14.30
2023-02-06T07:15:52.771Z,14.50
2023-02-06T07:18:20.135Z,14.98
2023-02-06T07:20:47.454Z,13.90
2023-02-06T07:23:14.698Z,14.73
2023-02-06T07:25:42.039Z,14.23
2023-02-06T07:28:09.528Z,15.20
2023-02-06T07:30:36.949Z,13.68
2023-02-06T07:33:05.815Z,14.13
2023-02-06T07:35:33.452Z,14.25
2023-02-06T07:38:00.989Z,14.10
2023-02-06T07:40:39.665Z,14.77
2023-02-06T07:43:12.084Z,15.30
2023-02-06T07:45:39.549Z,15.13
2023-02-06T07:48:07.764Z,16.27
2023-02-06T07:50:35.441Z,14.40
2023-02-06T07:53:02.797Z,14.45
2023-02-06T07:55:30.090Z,15.15
2023-02-06T07:57:57.419Z,14.60
2023-02-06T08:00:24.770Z,15.45
2023-02-06T08:02:52.098Z,15.65
2023-02-06T08:05:19.400Z,14.02
2023-02-06T08:07:47.012Z,14.80
2023-02-06T08:10:14.302Z,16.50
2023-02-06T08:12:41.717Z,15.65
2023-02-06T08:15:09.576Z,17.67
2023-02-06T08:17:36.827Z,15.27
2023-02-06T08:20:04.388Z,14.98
2023-02-06T08:22:31.688Z,14.10
2023-02-06T08:24:58.967Z,17.83
2023-02-06T08:27:27.302Z,14.50
2023-02-06T08:29:54.663Z,12.43
2023-02-06T08:32:21.980Z,15.48
2023-02-06T08:34:49.376Z,12.63
2023-02-06T08:37:16.639Z,13.68
2023-02-06T08:39:43.993Z,15.73
2023-02-06T08:42:11.262Z,14.05
2023-02-06T08:44:38.560Z,13.75
2023-02-06T08:47:10.307Z,13.50
2023-02-06T08:49:38.286Z,14.20
2023-02-06T08:52:05.966Z,17.35
2023-02-06T08:54:35.950Z,16.27
2023-02-06T08:57:03.829Z,19.05
2023-02-06T08:59:31.256Z,14.88
2023-02-06T09:01:58.554Z,16.02
2023-02-06T09:04:29.494Z,15.25
2023-02-06T09:06:56.788Z,15.48
2023-02-06T09:09:24.111Z,14.95
2023-02-06T09:11:51.400Z,17.00
2023-02-06T09:14:19.144Z,16.30
2023-02-06T09:16:46.468Z,17.45
2023-02-06T09:19:14.176Z,17.10
2023-02-06T09:21:41.851Z,13.77
2023-02-06T09:24:09.775Z,18.27
2023-02-06T09:26:53.493Z,17.30
2023-02-06T09:29:25.935Z,19.67
2023-02-06T09:31:53.200Z,19.00
2023-02-06T09:34:20.601Z,20.10
2023-02-06T09:36:47.976Z,17.58
2023-02-06T09:39:15.327Z,19.13
2023-02-06T09:41:52.316Z,18.20
2023-02-06T09:44:42.030Z,16.20
2023-02-06T09:47:14.984Z,16.67
2023-02-06T09:49:47.460Z,16.02
2023-02-06T09:52:36.874Z,14.75
2023-02-06T09:55:29.617Z,16.00
2023-02-06T09:58:09.804Z,17.65
2023-02-06T10:00:44.811Z,17.27
2023-02-06T10:03:31.225Z,16.90
2023-02-06T10:06:21.657Z,15.55
2023-02-06T10:09:14.178Z,16.45
2023-02-06T10:11:57.578Z,16.20
2023-02-06T10:14:44.518Z,17.65
2023-02-06T10:20:13.652Z,15.55
2023-02-06T10:22:47.317Z,15.25
2023-02-06T10:25:36.605Z,15.45
2023-02-06T10:28:26.350Z,14.85
2023-02-06T10:31:25.769Z,15.90
2023-02-06T10:34:11.194Z,13.40
2023-02-06T10:37:17.029Z,12.60
2023-02-06T10:40:27.936Z,12.65
2023-02-06T10:43:24.847Z,11.85
2023-02-06T10:46:29.913Z,12.43
2023-02-06T10:49:19.117Z,11.45
2023-02-06T10:51:52.825Z,11.05
2023-02-06T10:54:30.389Z,10.43
2023-02-06T10:57:00.673Z,10.55
2023-02-06T10:59:36.921Z,12.02
2023-02-06T11:02:04.212Z,11.00
2023-02-06T11:04:38.497Z,12.35
2023-02-06T11:07:15.050Z,9.90
2023-02-06T11:09:42.454Z,10.57
2023-02-06T11:12:28.906Z,9.10
2023-02-06T11:14:59.128Z,10.45
2023-02-06T11:17:28.427Z,9.75
2023-02-06T11:20:12.141Z,8.55
2023-02-06T11:22:52.047Z,8.48
2023-02-06T11:25:33.652Z,8.02
2023-02-06T11:28:01.408Z,8.68
2023-02-06T11:30:41.153Z,7.75
2023-02-06T11:33:18.662Z,6.85
2023-02-06T11:35:54.172Z,7.35
2023-02-06T11:38:24.604Z,7.67
2023-02-06T11:41:04.044Z,6.45
2023-02-06T11:43:42.096Z,6.15
2023-02-06T11:46:17.070Z,7.38
2023-02-06T11:48:48.673Z,6.07
2023-02-06T11:51:16.950Z,6.78
2023-02-06T11:54:00.507Z,6.38
2023-02-06T11:56:29.409Z,5.90
2023-02-06T11:59:16.557Z,6.85
2023-02-06T12:01:46.609Z,7.65
2023-02-06T12:04:32.389Z,7.15
2023-02-06T12:07:22.203Z,7.55
2023-02-06T12:09:49.620Z,8.70
2023-02-06T12:12:23.104Z,10.90
2023-02-06T12:14:58.369Z,10.45
2023-02-06T12:17:40.868Z,9.70
2023-02-06T12:20:18.377Z,11.20
2023-02-06T12:22:56.882Z,11.55
2023-02-06T12:25:33.921Z,10.02
2023-02-06T12:28:06.755Z,10.05
2023-02-06T12:30:43.661Z,8.02
2023-02-06T12:33:22.996Z,10.40
2023-02-06T12:36:00.765Z,11.48
2023-02-06T12:38:46.171Z,11.15
2023-02-06T12:41:39.116Z,10.48
2023-02-06T12:44:14.457Z,10.70
2023-02-06T12:46:45.607Z,11.05
2023-02-06T12:49:24.786Z,11.38
2023-02-06T12:52:04.906Z,9.80
2023-02-06T12:54:32.290Z,10.00
2023-02-06T12:57:15.952Z,9.68
2023-02-06T12:59:58.748Z,8.77
2023-02-06T13:03:03.833Z,10.18
2023-02-06T13:05:44.099Z,10.02
2023-02-06T13:08:20.330Z,8.20
2023-02-06T13:11:00.464Z,8.02
2023-02-06T13:13:31.639Z,8.38
2023-02-06T13:16:02.748Z,7.82
2023-02-06T13:18:42.130Z,8.82
2023-02-06T13:21:32.475Z,6.55
2023-02-06T13:24:02.520Z,7.18
2023-02-06T13:26:55.459Z,7.43
2023-02-06T13:29:23.328Z,8.48
2023-02-06T13:32:10.636Z,7.70
2023-02-06T13:34:48.557Z,6.22
2023-02-06T13:37:35.637Z,6.05
2023-02-06T13:40:23.909Z,7.82
2023-02-06T13:43:05.421Z,7.20
2023-02-06T13:45:46.244Z,5.90
2023-02-06T13:48:19.620Z,7.25
2023-02-06T13:50:55.570Z,6.80
2023-02-06T13:53:44.415Z,6.30
2023-02-06T13:56:43.230Z,5.72
2023-02-06T13:59:18.964Z,6.15
2023-02-06T14:01:46.428Z,8.80
2023-02-06T14:04:25.076Z,6.30
2023-02-06T14:07:04.618Z,5.97
2023-02-06T14:10:05.312Z,6.32
2023-02-06T14:12:53.121Z,6.15
2023-02-06T14:15:48.930Z,5.35
2023-02-06T14:18:28.984Z,4.88
2023-02-06T14:21:53.277Z,5.13
2023-02-06T14:24:32.482Z,5.57
2023-02-06T14:27:18.157Z,5.63
2023-02-06T14:30:12.746Z,4.95
2023-02-06T14:33:11.997Z,4.82
2023-02-06T14:36:00.434Z,4.38
2023-02-06T14:38:39.566Z,5.00
2023-02-06T14:41:07.709Z,4.72
2023-02-06T14:43:40.991Z,6.43
2023-02-06T14:46:13.586Z,6.13
2023-02-06T14:48:43.614Z,5.85
2023-02-06T14:51:34.749Z,6.25
2023-02-06T14:54:07.679Z,5.03
2023-02-06T14:56:39.326Z,4.32
2023-02-06T14:59:19.504Z,5.03
2023-02-06T15:01:50.334Z,4.63
2023-02-06T15:04:27.144Z,5.50
2023-02-06T15:06:55.855Z,5.57
2023-02-06T15:09:26.056Z,5.97
2023-02-06T15:11:58.487Z,6.05
2023-02-06T15:14:35.699Z,5.13
2023-02-06T15:17:03.555Z,5.00
2023-02-06T15:19:33.216Z,4.43
2023-02-06T15:22:03.683Z,4.28
2023-02-06T15:24:42.865Z,4.85
2023-02-06T15:27:27.619Z,4.90
2023-02-06T15:29:56.546Z,6.50
2023-02-06T15:32:31.549Z,6.07
2023-02-06T15:35:00.648Z,6.85
2023-02-06T15:37:32.510Z,6.15
2023-02-06T15:40:27.892Z,6.40
2023-02-06T15:42:55.663Z,6.53
2023-02-06T15:45:40.759Z,4.75
2023-02-06T15:48:16.539Z,5.32
2023-02-06T15:51:21.772Z,4.93
2023-02-06T15:53:51.114Z,5.18
2023-02-06T15:56:34.430Z,5.07
2023-02-06T15:59:12.549Z,5.75
2023-02-06T16:01:41.484Z,5.68
2023-02-06T16:05:05.464Z,4.78
2023-02-06T16:07:39.707Z,6.55
2023-02-06T16:10:27.818Z,5.78
2023-02-06T16:13:16.701Z,4.20
2023-02-06T16:16:16.529Z,5.55
2023-02-06T16:18:43.966Z,5.57
2023-02-06T16:21:11.532Z,6.70
2023-02-06T16:28:00.275Z,5.07
2023-02-06T16:30:49.026Z,7.05
2023-02-06T16:33:36.069Z,5.82
2023-02-06T16:36:28.842Z,4.78
2023-02-06T16:39:07.383Z,5.35
2023-02-06T16:44:14.154Z,4.75
2023-02-06T16:47:31.433Z,5.90
2023-02-06T16:50:04.725Z,5.30
2023-02-06T16:56:16.730Z,4.82
2023-02-06T16:58:45.196Z,5.03
2023-02-06T17:01:49.134Z,4.03
2023-02-06T17:04:23.287Z,4.10
2023-02-06T17:07:05.441Z,4.57
2023-02-06T17:10:01.420Z,4.22
2023-02-06T17:12:41.749Z,4.13
2023-02-06T17:18:30.073Z,4.65
2023-02-06T17:23:50.635Z,4.60
2023-02-06T17:29:18.552Z,5.45
2023-02-06T17:31:48.860Z,5.93
2023-02-06T17:34:17.700Z,5.10
2023-02-06T17:36:52.787Z,5.70
2023-02-06T17:39:26.626Z,6.38
2023-02-06T17:42:24.101Z,5.53
2023-02-06T17:44:56.224Z,5.25
2023-02-06T17:47:46.984Z,4.88
2023-02-06T17:50:21.295Z,5.40
2023-02-06T17:53:00.270Z,5.40
2023-02-06T17:55:31.787Z,4.90
2023-02-06T17:58:00.803Z,5.60
2023-02-06T18:00:28.193Z,5.60
2023-02-06T18:02:59.644Z,5.50
2023-02-06T18:05:30.196Z,5.07
2023-02-06T18:08:02.506Z,5.60
2023-02-06T18:10:35.785Z,6.10
2023-02-06T18:13:13.276Z,7.20
2023-02-06T18:15:52.841Z,6.82
2023-02-06T18:18:25.275Z,6.78
2023-02-06T18:20:52.998Z,6.57
2023-02-06T18:23:20.404Z,6.13
2023-02-06T18:25:47.733Z,7.57
2023-02-06T18:28:16.570Z,6.97
2023-02-06T18:30:45.091Z,8.52
2023-02-06T18:33:12.905Z,7.90
2023-02-06T18:35:44.321Z,7.07
2023-02-06T18:38:12.807Z,6.78
2023-02-06T18:40:41.706Z,6.65
2023-02-06T18:43:13.846Z,7.65
2023-02-06T18:46:01.833Z,8.05
2023-02-06T18:48:29.123Z,7.00
2023-02-06T18:54:56.754Z,7.57
2023-02-06T18:57:37.012Z,7.00
2023-02-06T19:00:13.683Z,7.68
2023-02-06T19:02:49.856Z,7.32
2023-02-06T19:05:22.712Z,7.82
2023-02-06T19:07:53.549Z,7.22
2023-02-06T19:10:21.835Z,9.20
2023-02-06T19:12:49.257Z,8.48
2023-02-06T19:15:16.628Z,8.85
2023-02-06T19:17:44.035Z,8.85
2023-02-06T19:20:12.247Z,8.50
2023-02-06T19:22:39.717Z,8.48
2023-02-06T19:25:10.977Z,9.60
2023-02-06T19:27:39.071Z,10.30
2023-02-06T19:30:08.040Z,9.63
2023-02-06T19:32:35.768Z,10.10
2023-02-06T19:35:04.458Z,9.93
2023-02-06T19:37:31.985Z,9.82
2023-02-06T19:39:59.316Z,9.07
2023-02-06T19:42:26.658Z,9.82
2023-02-06T19:44:57.325Z,9.50
2023-02-06T19:47:24.635Z,9.98
2023-02-06T19:50:07.056Z,10.43
2023-02-06T19:52:54.973Z,10.38
2023-02-06T19:55:40.819Z,11.63
2023-02-06T19:58:14.827Z,10.48
2023-02-06T20:00:44.164Z,11.32
2023-02-06T20:03:37.493Z,10.63
2023-02-06T20:06:07.116Z,10.70
2023-02-06T20:08:34.962Z,12.80
2023-02-06T20:11:11.751Z,13.57
2023-02-06T20:13:40.531Z,11.30
2023-02-06T20:16:30.373Z,12.07
2023-02-06T20:19:10.609Z,11.90
2023-02-06T20:21:56.740Z,13.35
2023-02-06T20:24:44.685Z,13.00
2023-02-06T20:27:23.365Z,13.23
2023-02-06T20:29:53.040Z,10.55
2023-02-06T20:32:56.776Z,11.27
2023-02-06T20:35:25.083Z,10.57
2023-02-06T20:37:52.363Z,11.65
2023-02-06T20:40:24.210Z,10.80
2023-02-06T20:43:00.998Z,11.50
2023-02-06T20:45:28.490Z,12.60
2023-02-06T20:47:55.909Z,12.23
2023-02-06T20:50:23.234Z,12.70
2023-02-06T20:52:50.513Z,13.70
2023-02-06T20:55:17.829Z,14.32
2023-02-06T20:57:45.101Z,12.18
2023-02-06T21:00:13.227Z,13.60
2023-02-06T21:02:40.838Z,13.80
2023-02-06T21:05:08.270Z,14.00
2023-02-06T21:07:35.701Z,14.98
2023-02-06T21:10:04.292Z,14.73
2023-02-06T21:12:31.572Z,14.38
2023-02-06T21:14:59.112Z,14.55
2023-02-06T21:17:45.722Z,17.30
2023-02-06T21:22:42.379Z,14.88
2023-02-06T21:25:09.696Z,15.52
2023-02-06T21:27:37.658Z,14.13
2023-02-06T21:30:05.592Z,14.38
2023-02-06T21:32:32.969Z,13.65
2023-02-06T21:35:00.509Z,12.85
2023-02-06T21:37:27.822Z,14.75
2023-02-06T21:39:55.098Z,14.40
2023-02-06T21:42:26.243Z,12.90
2023-02-06T21:44:53.595Z,14.80
2023-02-06T21:47:21.015Z,14.07
2023-02-06T21:49:48.324Z,14.13
2023-02-06T21:52:15.633Z,12.93
2023-02-06T21:54:42.964Z,12.32
2023-02-06T22:09:59.551Z,12.27
2023-02-06T22:16:06.767Z,12.60
2023-02-06T22:18:51.747Z,10.73
2023-02-06T22:21:30.615Z,12.38
2023-02-06T22:24:18.787Z,11.52
2023-02-06T22:26:48.307Z,12.32
2023-02-06T22:29:17.920Z,11.20
2023-02-06T22:34:51.348Z,11.60
2023-02-06T22:37:26.195Z,11.30
2023-02-06T22:40:10.468Z,12.75
2023-02-06T22:42:40.600Z,14.02
2023-02-06T22:45:19.825Z,12.02
2023-02-06T22:48:04.196Z,12.20
2023-02-06T22:50:41.374Z,13.88
2023-02-06T22:53:38.361Z,13.43
2023-02-06T22:59:24.055Z,14.90
2023-02-06T23:01:52.702Z,15.20
2023-02-06T23:04:25.520Z,15.85
2023-02-06T23:06:53.341Z,15.07
2023-02-06T23:09:27.037Z,13.20
2023-02-06T23:11:54.967Z,13.05
2023-02-06T23:14:22.315Z,15.00
2023-02-06T23:16:50.842Z,15.50
2023-02-06T23:19:19.575Z,13.95
2023-02-06T23:21:49.075Z,13.43
2023-02-06T23:24:16.860Z,15.00
2023-02-06T23:26:45.867Z,12.80
2023-02-06T23:29:18.283Z,12.32
2023-02-06T23:31:47.046Z,12.32
2023-02-06T23:34:15.321Z,12.60
2023-02-06T23:36:43.118Z,14.70
2023-02-06T23:39:11.784Z,12.73
2023-02-06T23:41:39.494Z,14.23
2023-02-06T23:44:08.740Z,13.85
2023-02-06T23:46:38.182Z,13.30
2023-02-06T23:49:06.490Z,13.07
2023-02-06T23:51:35.247Z,14.70
2023-02-06T23:54:02.752Z,14.18
2023-02-06T23:56:31.801Z,12.23
2023-02-06T23:59:00.744Z,12.82
